Time;durP1;ratioP1;P1;durP2;ratioP2;P2;SDS_P1;SDS_P2;PMS_P1;PMS_P2;Temp;Humidity;BMP_temperature;BMP_pressure;BME280_temperature;BME280_humidity;BME280_pressure;Samples;Min_cycle;Max_cycle;Signal;HPM_P1;HPM_P2
2024/01/16 00:06:07;;;;;;;18.20;9.00;;;;;;;-0.67;94.04;97341.31;273906;1272;22381;-93
2024/01/16 00:12:20;;;;;;;24.30;10.50;;;;;;;-0.69;94.46;97342.45;272935;1267;22297;-93
2024/01/16 00:18:26;;;;;;;22.20;9.80;;;;;;;-0.70;94.70;97350.04;272867;1266;23430;-92
2024/01/16 00:24:31;;;;;;;16.90;8.90;;;;;;;-0.68;95.08;97359.77;272132;1270;22979;-91
2024/01/16 00:30:35;;;;;;;18.30;10.20;;;;;;;-0.68;95.35;97366.46;272300;1266;23830;-93
2024/01/16 00:36:48;;;;;;;17.30;9.20;;;;;;;-0.69;95.70;97374.48;269958;1267;2788817;-91
2024/01/16 00:43:02;;;;;;;18.80;8.80;;;;;;;-0.71;96.09;97380.04;273143;1266;22414;-91
2024/01/16 00:49:09;;;;;;;17.10;9.30;;;;;;;-0.73;96.91;97386.27;272324;1269;23327;-91
2024/01/16 00:55:57;;;;;;;;;;;;;;;;;;;;;
2024/01/16 01:02:34;;;;;;;;;;;;;;;;;;;;;
2024/01/16 01:09:58;;;;;;;;;;;;;;;;;;;;;
2024/01/16 01:16:23;;;;;;;16.30;7.90;;;;;;;-0.79;98.00;97411.52;270820;1266;22606;-91
2024/01/16 01:22:54;;;;;;;13.30;7.60;;;;;;;-0.78;98.06;97414.66;270641;1266;25342;-93
2024/01/16 01:29:20;;;;;;;13.70;8.20;;;;;;;-0.77;98.28;97424.30;271107;1269;22514;-92
2024/01/16 01:35:55;;;;;;;12.20;7.10;;;;;;;-0.75;98.51;97431.96;271813;1270;22566;-93
2024/01/16 01:42:12;;;;;;;13.90;8.70;;;;;;;-0.79;98.75;97431.17;271219;1270;22651;-93
2024/01/16 01:48:45;;;;;;;14.00;8.40;;;;;;;-0.83;99.31;97432.88;271115;1267;23282;-92
2024/01/16 01:55:32;;;;;;;18.20;9.70;;;;;;;-0.87;99.74;97435.85;271374;1269;22573;-94
2024/01/16 02:02:46;;;;;;;19.30;9.20;;;;;;;-0.86;99.83;97437.48;271163;1266;24193;-92
2024/01/16 02:09:38;;;;;;;17.70;9.60;;;;;;;-0.89;99.97;97430.32;270855;1267;22547;-93
2024/01/16 02:16:44;;;;;;;29.20;10.80;;;;;;;-0.95;99.92;97435.36;270679;1266;22541;-93
2024/01/16 02:23:49;;;;;;;27.40;10.60;;;;;;;-0.98;99.78;97446.75;270758;1267;25426;-93
2024/01/16 02:37:14;;;;;;;20.70;9.00;;;;;;;-0.99;99.58;97452.20;271606;1274;91096;-86
2024/01/16 02:43:37;;;;;;;20.60;9.10;;;;;;;-1.00;99.63;97458.44;271824;1281;22283;-87
2024/01/16 02:49:43;;;;;;;23.00;11.10;;;;;;;-0.99;99.59;97458.94;272448;1283;22212;-86
2024/01/16 03:03:39;;;;;;;9.60;6.80;;;;;;;-0.86;99.00;97461.88;272122;1281;23376;-86
2024/01/16 03:10:10;;;;;;;12.00;7.00;;;;;;;-0.82;98.67;97468.59;272245;1277;22315;-86
2024/01/16 03:16:17;;;;;;;9.80;5.40;;;;;;;-0.75;98.45;97465.45;272300;1276;22972;-87
2024/01/16 03:22:19;;;;;;;9.30;4.80;;;;;;;-0.68;98.25;97472.58;272169;1277;22217;-87
2024/01/16 03:28:21;;;;;;;9.90;5.30;;;;;;;-0.62;98.14;97478.73;271658;1276;22716;-86
2024/01/16 03:34:23;;;;;;;17.70;7.80;;;;;;;-0.57;97.94;97482.26;271893;1278;22693;-86
2024/01/16 03:40:25;;;;;;;10.60;5.40;;;;;;;-0.50;97.79;97484.69;272244;1276;23482;-87
2024/01/16 03:47:21;;;;;;;9.10;5.00;;;;;;;-0.45;97.71;97485.88;271846;1276;22387;-87
2024/01/16 03:54:45;;;;;;;9.00;5.10;;;;;;;-0.39;97.48;97493.09;271536;1277;22329;-86
2024/01/16 04:01:39;;;;;;;9.80;5.60;;;;;;;-0.34;97.35;97490.55;271923;1284;22191;-85
2024/01/16 04:08:27;;;;;;;9.40;5.40;;;;;;;-0.30;97.29;97497.36;271259;1276;23146;-87
2024/01/16 04:14:29;;;;;;;8.70;5.80;;;;;;;-0.32;97.76;97500.69;272526;1281;22241;-88
2024/01/16 04:20:57;;;;;;;10.60;5.50;;;;;;;-0.33;97.92;97501.95;272371;1281;22705;-86
2024/01/16 04:27:25;;;;;;;10.90;4.90;;;;;;;-0.38;98.54;97515.02;272052;1280;22976;-86
2024/01/16 04:34:54;;;;;;;8.10;4.40;;;;;;;-0.42;99.06;97520.19;272079;1278;23026;-85
2024/01/16 04:41:01;;;;;;;9.70;5.30;;;;;;;-0.43;99.22;97523.16;272400;1278;22273;-87
2024/01/16 04:47:55;;;;;;;10.50;6.20;;;;;;;-0.41;99.16;97532.30;272461;1276;22293;-86
2024/01/16 04:54:45;;;;;;;7.70;5.00;;;;;;;-0.37;99.10;97549.14;272603;1283;22602;-86
2024/01/16 05:01:14;;;;;;;7.80;4.80;;;;;;;-0.33;99.05;97567.17;272390;1280;22225;-86
2024/01/16 05:08:21;;;;;;;;;;;;;;;;;;;;;
2024/01/16 05:16:36;;;;;;;;;;;;;;;;;;;;;
2024/01/16 05:31:24;;;;;;;9.40;5.10;;;;;;;-0.37;99.36;97619.23;270755;1280;23968;-86
2024/01/16 05:38:16;;;;;;;14.00;6.30;;;;;;;-0.37;99.34;97627.27;273167;1270;133091;-85
2024/01/16 05:45:03;;;;;;;10.00;5.30;;;;;;;-0.37;99.34;97645.71;271375;1269;22601;-87
2024/01/16 05:51:41;;;;;;;8.60;5.20;;;;;;;-0.37;99.46;97653.71;272479;1277;23148;-86
2024/01/16 05:57:43;;;;;;;10.00;5.40;;;;;;;-0.37;99.22;97665.55;271564;1269;22676;-86
2024/01/16 06:03:48;;;;;;;10.30;6.00;;;;;;;-0.37;99.22;97672.91;270346;1272;23190;-85
2024/01/16 06:09:51;;;;;;;12.40;6.90;;;;;;;-0.38;99.15;97684.94;271655;1269;22631;-86
2024/01/16 06:16:52;;;;;;;18.10;7.40;;;;;;;-0.40;99.30;97687.18;272038;1271;22431;-87
2024/01/16 06:22:55;;;;;;;21.30;9.40;;;;;;;-0.42;99.77;97704.02;273192;1267;23658;-86
2024/01/16 06:29:20;;;;;;;17.80;8.60;;;;;;;-0.50;100.00;97718.27;273247;1270;22301;-86
2024/01/16 06:35:47;;;;;;;20.30;9.50;;;;;;;-0.68;100.00;97722.95;272919;1264;22902;-87
2024/01/16 06:49:57;;;;;;;17.90;11.70;;;;;;;-0.82;100.00;97738.42;270701;1275;24026;-88
2024/01/16 06:56:03;;;;;;;22.80;12.10;;;;;;;-0.81;100.00;97751.95;269770;1274;22542;-87
2024/01/16 07:02:05;;;;;;;34.80;18.90;;;;;;;-0.81;100.00;97764.18;271297;1266;22537;-88
2024/01/16 07:09:20;;;;;;;;;;;;;;;;;;;;;
2024/01/16 07:17:00;;;;;;;28.50;13.40;;;;;;;-0.81;100.00;97780.38;273639;1266;22786;-89
2024/01/16 07:23:04;;;;;;;24.40;12.50;;;;;;;-0.82;100.00;97785.96;273939;1266;22288;-89
2024/01/16 07:29:49;;;;;;;25.70;12.60;;;;;;;-0.80;100.00;97794.83;273943;1266;24170;-88
2024/01/16 07:36:01;;;;;;;18.30;10.60;;;;;;;-0.73;100.00;97809.32;273954;1266;22961;-89
2024/01/16 07:42:06;;;;;;;15.80;9.20;;;;;;;-0.65;100.00;97819.59;273908;1267;22236;-88
2024/01/16 07:48:08;;;;;;;13.80;8.40;;;;;;;-0.60;100.00;97820.77;274024;1267;22191;-87
2024/01/16 07:54:13;;;;;;;17.30;8.70;;;;;;;-0.52;100.00;97825.88;274008;1268;22637;-88
2024/01/16 08:00:15;;;;;;;15.70;9.80;;;;;;;-0.45;100.00;97833.60;274117;1268;23814;-88
2024/01/16 08:06:38;;;;;;;16.40;9.70;;;;;;;-0.44;100.00;97848.52;274216;1268;22938;-88
2024/01/16 08:12:47;;;;;;;17.90;8.80;;;;;;;-0.49;100.00;97857.09;273983;1273;22313;-87
2024/01/16 08:19:33;;;;;;;14.30;7.90;;;;;;;-0.54;100.00;97870.48;274456;1269;22250;-89
2024/01/16 08:26:25;;;;;;;16.30;9.00;;;;;;;-0.49;100.00;97882.27;270949;1275;22259;-87
2024/01/16 08:32:31;;;;;;;16.40;8.40;;;;;;;-0.46;100.00;97891.55;272780;1268;22341;-88
2024/01/16 08:38:46;;;;;;;16.80;8.80;;;;;;;-0.41;100.00;97900.41;271801;1268;22345;-87
2024/01/16 08:45:47;;;;;;;15.10;7.60;;;;;;;-0.34;100.00;97912.57;272905;1280;22421;-88
2024/01/16 08:53:20;;;;;;;14.70;6.50;;;;;;;-0.27;100.00;97915.90;271187;1278;22324;-89
2024/01/16 08:59:28;;;;;;;10.90;5.70;;;;;;;-0.15;100.00;97919.23;272361;1280;22954;-88
2024/01/16 09:14:27;;;;;;;;;;;;;;;;;;;;;
2024/01/16 09:20:45;;;;;;;6.70;3.20;;;;;;;0.25;100.00;97937.05;273034;1278;22431;-88
2024/01/16 09:35:01;;;;;;;8.60;3.90;;;;;;;1.55;100.00;97941.41;274103;1274;22226;-89
2024/01/16 09:41:16;;;;;;;9.00;3.80;;;;;;;2.59;100.00;97940.91;273552;1269;22664;-87
2024/01/16 09:47:28;;;;;;;8.40;4.00;;;;;;;3.21;99.68;97945.27;273734;1267;22418;-89
2024/01/16 09:53:35;;;;;;;7.90;4.00;;;;;;;3.11;98.07;97944.82;272648;1267;22342;-90
2024/01/16 09:59:40;;;;;;;10.20;4.80;;;;;;;2.74;97.55;97945.08;273985;1268;22672;-88
2024/01/16 10:05:43;;;;;;;10.70;4.60;;;;;;;2.07;97.07;97958.36;274052;1267;22195;-88
2024/01/16 10:11:46;;;;;;;8.50;4.10;;;;;;;1.40;97.49;97967.44;273916;1266;23307;-90
2024/01/16 10:18:23;;;;;;;8.70;4.40;;;;;;;1.14;97.95;97964.63;272086;1267;22530;-87
2024/01/16 10:40:43;;;;;;;10.90;4.70;;;;;;;1.20;97.20;97978.02;271558;1277;22255;-87
2024/01/16 10:47:37;;;;;;;12.20;5.60;;;;;;;1.20;97.16;97986.39;272533;1282;22243;-88
2024/01/16 10:54:57;;;;;;;;;;;;;;;;;;;;;
2024/01/16 11:02:57;;;;;;;6.80;3.70;;;;;;;1.23;96.21;97984.02;271582;1288;22284;-86
2024/01/16 11:17:29;;;;;;;8.00;3.80;;;;;;;1.17;94.47;97983.52;271474;1269;22273;-87
2024/01/16 11:24:12;;;;;;;7.20;3.50;;;;;;;1.24;94.53;97990.29;272900;1279;22273;-86
2024/01/16 11:45:56;;;;;;;9.20;3.10;;;;;;;1.97;90.73;97995.56;273728;1266;22367;-87
2024/01/16 12:00:18;;;;;;;7.60;3.10;;;;;;;1.89;89.10;98005.52;273939;1275;22254;-88
2024/01/16 12:06:25;;;;;;;6.10;3.20;;;;;;;1.83;89.25;98008.17;273098;1279;22334;-87
2024/01/16 12:12:49;;;;;;;9.40;4.10;;;;;;;1.66;88.57;98011.08;273183;1277;22720;-88
2024/01/16 12:19:36;;;;;;;6.00;3.10;;;;;;;1.55;88.44;98015.46;273051;1272;22222;-86
2024/01/16 12:25:41;;;;;;;8.50;3.70;;;;;;;1.34;88.63;98027.42;273306;1274;22259;-86
2024/01/16 12:33:35;;;;;;;;;;;;;;;;;;;;;
2024/01/16 12:39:51;;;;;;;11.20;5.80;;;;;;;0.23;94.72;98055.13;273865;1269;22552;-87
2024/01/16 12:46:14;;;;;;;10.20;5.50;;;;;;;-0.14;97.28;98067.62;270850;1267;22552;-87
2024/01/16 12:52:56;;;;;;;10.40;5.10;;;;;;;-0.25;98.88;98072.57;270006;1263;22553;-87
2024/01/16 12:59:36;;;;;;;11.00;5.90;;;;;;;-0.28;99.69;98080.36;270599;1270;22507;-86
2024/01/16 13:05:38;;;;;;;15.00;6.40;;;;;;;-0.32;99.78;98087.59;270966;1270;22538;-86
2024/01/16 13:12:33;;;;;;;13.10;6.90;;;;;;;-0.34;99.89;98086.80;271000;1270;22542;-86
2024/01/16 13:18:38;;;;;;;13.40;6.40;;;;;;;-0.31;99.83;98092.91;272095;1269;22610;-86
2024/01/16 13:25:05;;;;;;;11.40;6.20;;;;;;;-0.34;99.78;98105.17;271343;1272;22619;-87
2024/01/16 13:31:32;;;;;;;13.10;7.00;;;;;;;-0.37;99.99;98115.83;270397;1266;24238;-86
2024/01/16 13:38:15;;;;;;;15.90;8.00;;;;;;;-0.44;100.00;98118.39;271137;1271;23661;-87
2024/01/16 13:44:47;;;;;;;18.10;9.00;;;;;;;-0.55;100.00;98123.25;272633;1271;23368;-86
2024/01/16 13:51:12;;;;;;;17.90;8.70;;;;;;;-0.59;100.00;98129.46;271071;1271;22416;-86
2024/01/16 13:58:18;;;;;;;16.20;7.10;;;;;;;-0.60;100.00;98143.30;271476;1269;22556;-86
2024/01/16 14:05:11;;;;;;;12.80;7.80;;;;;;;-0.64;100.00;98156.42;272037;1268;22198;-87
2024/01/16 14:12:35;;;;;;;23.10;8.20;;;;;;;-0.65;100.00;98162.66;273450;1275;23755;-87
2024/01/16 14:19:29;;;;;;;;;;;;;;;;;;;;;
2024/01/16 14:26:26;;;;;;;15.60;7.70;;;;;;;-0.67;100.00;98175.09;273844;1268;22278;-87
2024/01/16 14:32:49;;;;;;;14.00;7.70;;;;;;;-0.69;99.83;98182.27;273898;1274;22262;-87
2024/01/16 14:39:30;;;;;;;17.10;9.20;;;;;;;-0.71;99.90;98192.59;273474;1269;22589;-87
2024/01/16 14:46:50;;;;;;;15.10;6.60;;;;;;;-0.74;99.91;98195.61;273810;1270;23423;-87
2024/01/16 14:53:57;;;;;;;23.70;10.20;;;;;;;-0.73;99.98;98198.15;272354;1267;22756;-87
2024/01/16 15:01:04;;;;;;;24.10;9.90;;;;;;;-0.77;99.95;98201.02;272846;1272;22267;-87
2024/01/16 15:07:09;;;;;;;24.70;11.00;;;;;;;-0.81;100.00;98221.73;273626;1267;22508;-86
2024/01/16 15:13:35;;;;;;;23.20;10.70;;;;;;;-0.81;100.00;98234.96;272982;1273;22200;-88
2024/01/16 15:19:57;;;;;;;23.10;9.90;;;;;;;-0.88;100.00;98233.11;273209;1272;22196;-87
2024/01/16 15:26:03;;;;;;;21.40;9.10;;;;;;;-1.02;100.00;98241.40;274145;1274;22288;-87
2024/01/16 15:32:45;;;;;;;22.20;11.10;;;;;;;-1.07;100.00;98247.02;274145;1274;22221;-86
2024/01/16 15:39:47;;;;;;;20.70;10.70;;;;;;;-1.07;100.00;98254.92;273234;1269;22783;-88
2024/01/16 15:46:30;;;;;;;26.30;12.60;;;;;;;-1.03;100.00;98269.20;273646;1272;22240;-87
2024/01/16 15:53:53;;;;;;;22.30;11.10;;;;;;;-1.02;100.00;98279.17;273878;1271;22356;-88
2024/01/16 16:00:39;;;;;;;26.40;13.20;;;;;;;-1.06;100.00;98289.34;273957;1267;23237;-87
2024/01/16 16:06:41;;;;;;;29.90;14.10;;;;;;;-1.07;100.00;98309.09;272338;1271;24965;-88
2024/01/16 16:12:44;;;;;;;33.60;15.60;;;;;;;-1.07;100.00;98317.91;272477;1272;22218;-87
2024/01/16 16:19:08;;;;;;;20.60;10.70;;;;;;;-1.08;100.00;98327.83;271958;1274;22245;-88
2024/01/16 16:25:36;;;;;;;21.00;10.40;;;;;;;-1.13;100.00;98341.13;272576;1273;23368;-87
2024/01/16 16:32:15;;;;;;;;;;;;;;;;;;;;;
2024/01/16 16:39:10;;;;;;;18.90;8.70;;;;;;;-1.31;100.00;98343.06;271036;1271;23118;-87
2024/01/16 16:46:41;;;;;;;20.00;9.10;;;;;;;-1.34;100.00;98347.98;272222;1269;22568;-87
2024/01/16 16:53:46;;;;;;;20.20;9.00;;;;;;;-1.35;100.00;98358.50;271479;1267;22549;-87
2024/01/16 17:00:29;;;;;;;19.30;7.90;;;;;;;-1.36;100.00;98363.14;270848;1264;22571;-87
2024/01/16 17:07:02;;;;;;;19.50;8.30;;;;;;;-1.39;100.00;98362.92;271342;1273;22557;-87
2024/01/16 17:13:45;;;;;;;27.20;11.50;;;;;;;-1.41;100.00;98366.98;271107;1267;22587;-88
2024/01/16 17:19:53;;;;;;;22.40;10.00;;;;;;;-1.41;100.00;98367.80;271761;1267;23676;-87
2024/01/16 17:25:58;;;;;;;20.80;9.90;;;;;;;-1.42;100.00;98371.79;271719;1267;23297;-85
2024/01/16 17:32:41;;;;;;;25.90;9.80;;;;;;;-1.43;100.00;98375.31;271613;1268;22319;-86
2024/01/16 17:39:21;;;;;;;15.70;7.60;;;;;;;-1.42;100.00;98377.21;267667;1269;23785;-84
2024/01/16 17:46:06;;;;;;;19.00;9.30;;;;;;;-1.45;100.00;98386.56;272473;1264;22561;-87
2024/01/16 17:52:49;;;;;;;18.50;9.10;;;;;;;-1.48;100.00;98392.11;273413;1274;22324;-86
2024/01/16 17:59:12;;;;;;;18.90;8.60;;;;;;;-1.63;100.00;98398.23;271584;1275;22591;-89
2024/01/16 18:05:47;;;;;;;;;;;;;;;;;;;;;
2024/01/16 18:12:27;;;;;;;16.30;7.90;;;;;;;-1.92;100.00;98403.48;270960;1269;22593;-86
2024/01/16 18:18:43;;;;;;;20.50;9.40;;;;;;;-1.99;100.00;98411.13;271485;1267;22533;-86
2024/01/16 18:25:05;;;;;;;23.20;10.60;;;;;;;-2.07;100.00;98414.59;272107;1266;23846;-87
2024/01/16 18:31:43;;;;;;;22.80;11.30;;;;;;;-2.11;100.00;98420.61;272070;1267;22648;-87
2024/01/16 18:38:27;;;;;;;29.70;12.70;;;;;;;-2.12;100.00;98423.48;272101;1267;23351;-87
2024/01/16 18:45:42;;;;;;;;;;;;;;;;;;;;;
2024/01/16 18:52:36;;;;;;;34.60;15.20;;;;;;;-2.12;100.00;98418.27;273038;1258;22303;-87
2024/01/16 18:58:38;;;;;;;36.10;14.50;;;;;;;-2.16;100.00;98424.01;272257;1266;23438;-86
2024/01/16 19:04:46;;;;;;;35.40;16.80;;;;;;;-2.16;100.00;98436.98;273009;1266;22200;-88
2024/01/16 19:10:51;;;;;;;32.50;15.30;;;;;;;-2.10;100.00;98442.74;272090;1267;22633;-86
2024/01/16 19:17:55;;;;;;;28.60;14.80;;;;;;;-2.08;100.00;98446.53;271055;1266;23185;-87
2024/01/16 19:24:30;;;;;;;31.20;13.80;;;;;;;-2.11;100.00;98448.59;274062;1275;22872;-87
2024/01/16 19:31:35;;;;;;;34.00;16.10;;;;;;;-2.18;100.00;98447.23;273245;1267;23867;-88
2024/01/16 19:38:00;;;;;;;;;;;;;;;-2.26;100.00;98448.16;271067;1267;22645;-88
2024/01/16 19:45:31;;;;;;;33.30;17.30;;;;;;;-2.40;100.00;98451.86;271369;1267;22568;-87
2024/01/16 19:51:43;;;;;;;39.50;17.70;;;;;;;-2.53;100.00;98462.10;270867;1267;26195;-88
2024/01/16 19:59:10;;;;;;;35.40;18.10;;;;;;;-2.66;100.00;98460.88;273507;1267;22206;-87
2024/01/16 20:05:58;;;;;;;44.10;20.40;;;;;;;-2.83;100.00;98463.78;274086;1269;22403;-88
2024/01/16 20:12:42;;;;;;;47.30;22.70;;;;;;;-2.94;100.00;98462.52;273902;1270;22380;-87
2024/01/16 20:19:25;;;;;;;44.80;20.80;;;;;;;-3.01;100.00;98458.92;273695;1267;23710;-87
2024/01/16 20:25:29;;;;;;;47.20;21.60;;;;;;;-3.10;100.00;98451.39;272118;1267;22571;-88
2024/01/16 20:32:02;;;;;;;44.00;21.90;;;;;;;-3.16;100.00;98448.85;273488;1267;23406;-87
2024/01/16 20:39:15;;;;;;;42.00;20.60;;;;;;;-3.24;100.00;98454.79;271013;1265;25487;-87
2024/01/16 20:46:40;;;;;;;35.30;17.10;;;;;;;-3.35;100.00;98461.80;271821;1266;22216;-87
2024/01/16 20:53:16;;;;;;;48.90;22.00;;;;;;;-3.40;100.00;98461.47;273492;1276;23505;-86
2024/01/16 20:59:18;;;;;;;62.30;26.80;;;;;;;-3.44;100.00;98459.78;271583;1265;22667;-86
2024/01/16 21:06:00;;;;;;;55.60;22.30;;;;;;;-3.50;100.00;98453.62;271207;1268;22212;-86
2024/01/16 21:12:46;;;;;;;46.20;23.10;;;;;;;-3.59;100.00;98447.64;273875;1276;22882;-86
2024/01/16 21:18:49;;;;;;;50.40;25.00;;;;;;;-3.61;100.00;98447.48;272572;1267;22621;-86
2024/01/16 21:24:50;;;;;;;44.90;22.80;;;;;;;-3.64;100.00;98449.45;271446;1268;22523;-88
2024/01/16 21:30:54;;;;;;;42.50;19.70;;;;;;;-3.70;100.00;98447.21;272360;1267;22381;-86
2024/01/16 21:37:58;;;;;;;35.10;16.90;;;;;;;-3.63;100.00;98446.39;273557;1268;22470;-86
2024/01/16 21:44:44;;;;;;;41.60;17.90;;;;;;;-3.52;100.00;98453.20;273713;1257;23459;-86
2024/01/16 21:51:07;;;;;;;45.90;17.60;;;;;;;-3.43;100.00;98450.29;273952;1267;23441;-86
2024/01/16 21:57:51;;;;;;;34.80;16.10;;;;;;;-3.39;100.00;98448.75;273993;1267;23095;-87
2024/01/16 22:04:55;;;;;;;38.40;18.50;;;;;;;-3.38;100.00;98444.79;273778;1270;22223;-87
2024/01/16 22:11:39;;;;;;;39.80;16.50;;;;;;;-3.45;100.00;98442.20;273960;1268;23078;-87
2024/01/16 22:18:28;;;;;;;49.20;23.50;;;;;;;-3.58;100.00;98439.69;273997;1270;22381;-87
2024/01/16 22:25:10;;;;;;;39.70;18.40;;;;;;;-3.70;100.00;98432.23;273890;1261;22179;-85
2024/01/16 22:32:33;;;;;;;56.60;25.20;;;;;;;-3.78;100.00;98433.58;273826;1276;23569;-87
2024/01/16 22:38:56;;;;;;;56.70;27.70;;;;;;;-3.82;100.00;98435.79;270877;1267;23842;-87
2024/01/16 22:45:52;;;;;;;;;;;;;;;;;;;;;
2024/01/16 22:52:25;;;;;;;57.80;24.90;;;;;;;-3.85;100.00;98423.17;273925;1275;22221;-87
2024/01/16 22:59:09;;;;;;;63.40;25.60;;;;;;;-3.88;100.00;98417.88;271046;1268;22374;-88
2024/01/16 23:06:14;;;;;;;53.40;24.10;;;;;;;-3.95;100.00;98420.85;273243;1268;22252;-87
2024/01/16 23:12:42;;;;;;;68.50;27.20;;;;;;;-4.06;100.00;98412.10;273475;1275;22269;-87
2024/01/16 23:18:47;;;;;;;56.70;23.70;;;;;;;-4.14;100.00;98406.30;273843;1268;24267;-86
2024/01/16 23:25:30;;;;;;;48.30;19.80;;;;;;;-4.20;100.00;98399.58;273890;1268;22270;-87
2024/01/16 23:32:12;;;;;;;51.00;22.10;;;;;;;-4.27;100.00;98399.27;272781;1269;22461;-87
2024/01/16 23:38:58;;;;;;;50.40;21.80;;;;;;;-4.37;100.00;98397.92;273814;1268;22211;-87
2024/01/16 23:46:01;;;;;;;53.70;23.40;;;;;;;-4.53;100.00;98399.84;273870;1275;22139;-87
2024/01/16 23:52:45;;;;;;;52.40;21.40;;;;;;;-4.70;100.00;98398.89;273988;1268;22282;-88
2024/01/16 23:59:07;;;;;;;45.80;21.30;;;;;;;-4.88;100.00;98399.73;274063;1275;22187;-87
